createdAt,value
2022-12-22T00:00:19.834Z,46.92
2022-12-22T00:03:05.302Z,45.53
2022-12-22T00:05:50.902Z,47.38
2022-12-22T00:08:36.216Z,48.95
2022-12-22T00:11:24.930Z,47.92
2022-12-22T00:14:10.288Z,47.97
2022-12-22T00:16:57.251Z,47.20
2022-12-22T00:19:43.252Z,48.65
2022-12-22T00:22:41.696Z,48.55
2022-12-22T00:25:32.528Z,47.17
2022-12-22T00:28:17.786Z,47.35
2022-12-22T00:31:04.675Z,45.90
2022-12-22T00:33:49.985Z,46.33
2022-12-22T00:36:35.378Z,47.65
2022-12-22T00:39:20.544Z,47.38
2022-12-22T00:42:05.800Z,47.97
2022-12-22T00:44:51.059Z,46.25
2022-12-22T00:47:54.461Z,48.47
2022-12-22T00:50:43.160Z,48.15
2022-12-22T00:53:28.853Z,47.20
2022-12-22T00:56:13.959Z,46.97
2022-12-22T00:58:59.388Z,49.22
2022-12-22T01:01:44.693Z,47.50
2022-12-22T01:04:30.362Z,48.38
2022-12-22T01:07:16.688Z,46.72
2022-12-22T01:10:06.938Z,45.95
2022-12-22T01:12:54.409Z,44.58
2022-12-22T01:15:40.265Z,47.45
2022-12-22T01:18:25.792Z,46.55
2022-12-22T01:21:12.112Z,46.65
2022-12-22T01:23:58.482Z,47.70
2022-12-22T01:26:43.681Z,47.15
2022-12-22T01:29:28.876Z,46.75
2022-12-22T01:32:14.189Z,46.00
2022-12-22T01:34:59.732Z,45.50
2022-12-22T01:37:45.515Z,47.50
2022-12-22T01:40:43.192Z,48.97
2022-12-22T01:43:42.688Z,48.70
2022-12-22T01:46:41.718Z,46.47
2022-12-22T01:49:34.383Z,48.03
2022-12-22T01:52:21.012Z,45.40
2022-12-22T01:55:08.242Z,47.28
2022-12-22T01:57:54.892Z,47.75
2022-12-22T02:00:41.160Z,45.58
2022-12-22T02:03:41.714Z,44.60
2022-12-22T02:06:59.975Z,44.67
2022-12-22T02:10:07.680Z,44.45
2022-12-22T02:13:15.276Z,44.33
2022-12-22T02:16:23.086Z,43.58
2022-12-22T02:19:13.064Z,41.78
2022-12-22T02:22:26.300Z,45.03
2022-12-22T02:25:24.992Z,42.97
2022-12-22T02:28:13.150Z,44.78
2022-12-22T02:31:00.015Z,44.50
2022-12-22T02:33:45.520Z,43.70
2022-12-22T02:37:32.238Z,44.33
2022-12-22T02:40:17.348Z,43.67
2022-12-22T02:43:32.535Z,42.70
2022-12-22T02:46:31.268Z,42.05
2022-12-22T02:49:24.729Z,42.45
2022-12-22T02:52:19.995Z,44.58
2022-12-22T02:55:05.353Z,41.97
2022-12-22T02:57:50.602Z,44.45
2022-12-22T03:00:35.973Z,37.15
2022-12-22T03:03:21.425Z,38.92
2022-12-22T03:06:07.496Z,39.60
2022-12-22T03:08:52.949Z,40.92
2022-12-22T03:11:38.396Z,38.97
2022-12-22T03:14:23.790Z,41.20
2022-12-22T03:17:09.033Z,40.30
2022-12-22T03:19:54.521Z,40.80
2022-12-22T03:22:40.191Z,36.35
2022-12-22T03:25:25.869Z,36.90
2022-12-22T03:27:52.618Z,39.20
2022-12-22T03:30:19.709Z,39.58
2022-12-22T03:32:46.476Z,39.55
2022-12-22T03:35:13.286Z,40.45
2022-12-22T03:37:40.054Z,38.45
2022-12-22T03:40:07.605Z,37.17
2022-12-22T03:42:52.856Z,38.72
2022-12-22T03:45:38.137Z,40.83
2022-12-22T03:48:05.106Z,38.78
2022-12-22T03:50:31.896Z,38.28
2022-12-22T03:52:58.683Z,38.97
2022-12-22T03:55:25.541Z,39.17
2022-12-22T03:57:52.307Z,38.38
2022-12-22T04:00:19.325Z,38.33
2022-12-22T04:02:46.212Z,37.78
2022-12-22T04:05:13.119Z,39.17
2022-12-22T04:07:39.944Z,38.15
2022-12-22T04:10:26.198Z,38.88
2022-12-22T04:12:56.418Z,38.33
2022-12-22T04:15:24.564Z,37.80
2022-12-22T04:17:51.927Z,37.42
2022-12-22T04:20:20.440Z,37.60
2022-12-22T04:22:47.807Z,36.28
2022-12-22T04:25:15.643Z,35.85
2022-12-22T04:27:42.428Z,35.85
2022-12-22T04:30:09.832Z,35.15
2022-12-22T04:32:37.009Z,36.63
2022-12-22T04:35:05.091Z,29.25
2022-12-22T04:37:31.857Z,31.02
2022-12-22T04:40:00.225Z,29.50
2022-12-22T04:42:26.984Z,28.42
2022-12-22T04:44:53.751Z,29.40
2022-12-22T04:47:20.641Z,32.05
2022-12-22T04:49:47.416Z,32.05
2022-12-22T04:52:14.268Z,29.90
2022-12-22T04:54:41.045Z,30.58
2022-12-22T04:57:07.896Z,30.25
2022-12-22T04:59:34.670Z,32.63
2022-12-22T05:02:01.508Z,29.70
2022-12-22T05:04:28.383Z,29.10
2022-12-22T05:06:55.189Z,31.63
2022-12-22T05:09:22.016Z,30.80
2022-12-22T05:11:48.786Z,28.52
2022-12-22T05:14:15.698Z,19.45
2022-12-22T05:16:42.482Z,18.17
2022-12-22T05:19:09.410Z,16.08
2022-12-22T05:21:36.234Z,12.45
2022-12-22T05:24:03.094Z,14.98
2022-12-22T05:26:29.920Z,17.70
2022-12-22T05:28:56.795Z,17.17
2022-12-22T05:31:25.037Z,17.27
2022-12-22T05:33:52.300Z,17.42
2022-12-22T05:36:19.357Z,14.10
2022-12-22T05:38:46.291Z,13.70
2022-12-22T05:41:13.561Z,12.02
2022-12-22T05:43:40.594Z,12.60
2022-12-22T05:46:10.691Z,14.77
2022-12-22T05:48:39.596Z,15.35
2022-12-22T05:51:10.564Z,13.75
2022-12-22T05:53:38.839Z,13.32
2022-12-22T05:56:06.751Z,13.52
2022-12-22T05:58:34.363Z,13.77
2022-12-22T06:01:01.658Z,12.38
2022-12-22T06:03:29.874Z,11.50
2022-12-22T06:05:57.689Z,12.55
2022-12-22T06:08:25.537Z,12.38
2022-12-22T06:10:55.306Z,11.18
2022-12-22T06:13:22.155Z,11.02
2022-12-22T06:15:49.560Z,10.88
2022-12-22T06:18:17.066Z,11.40
2022-12-22T06:20:46.681Z,11.07
2022-12-22T06:23:13.428Z,10.40
2022-12-22T06:25:40.263Z,10.68
2022-12-22T06:28:07.026Z,9.90
2022-12-22T06:30:34.185Z,9.68
2022-12-22T06:33:01.294Z,10.57
2022-12-22T06:35:28.624Z,9.60
2022-12-22T06:37:55.425Z,10.13
2022-12-22T06:40:22.175Z,9.95
2022-12-22T06:43:08.903Z,9.40
2022-12-22T06:45:38.323Z,9.45
2022-12-22T06:48:05.738Z,9.85
2022-12-22T06:50:32.797Z,11.50
2022-12-22T06:52:59.987Z,11.05
2022-12-22T06:55:26.836Z,12.05
2022-12-22T06:57:53.723Z,10.05
2022-12-22T07:00:21.087Z,10.02
2022-12-22T07:02:48.134Z,10.27
2022-12-22T07:05:15.722Z,9.93
2022-12-22T07:07:42.886Z,10.15
2022-12-22T07:10:10.096Z,9.90
2022-12-22T07:12:36.917Z,10.32
2022-12-22T07:15:04.789Z,10.20
2022-12-22T07:17:31.563Z,9.60
2022-12-22T07:19:58.315Z,10.30
2022-12-22T07:22:29.782Z,10.35
2022-12-22T07:24:58.078Z,11.10
2022-12-22T07:27:24.842Z,9.85
2022-12-22T07:29:51.603Z,10.18
2022-12-22T07:32:18.397Z,10.50
2022-12-22T07:34:45.615Z,9.60
2022-12-22T07:37:13.707Z,10.38
2022-12-22T07:39:40.678Z,10.75
2022-12-22T07:42:26.419Z,9.80
2022-12-22T07:44:53.192Z,10.20
2022-12-22T07:47:19.986Z,10.98
2022-12-22T07:50:05.096Z,9.32
2022-12-22T07:52:31.841Z,11.20
2022-12-22T07:54:58.632Z,13.95
2022-12-22T07:57:43.798Z,13.60
2022-12-22T08:00:11.208Z,12.43
2022-12-22T08:02:39.380Z,10.60
2022-12-22T08:05:07.314Z,9.90
2022-12-22T08:07:34.313Z,9.95
2022-12-22T08:10:01.325Z,10.10
2022-12-22T08:12:29.818Z,10.23
2022-12-22T08:14:56.768Z,10.00
2022-12-22T08:17:23.527Z,10.88
2022-12-22T08:19:50.266Z,12.13
2022-12-22T08:22:17.034Z,11.48
2022-12-22T08:24:43.752Z,10.75
2022-12-22T08:27:19.502Z,14.27
2022-12-22T08:29:58.540Z,12.55
2022-12-22T08:32:25.413Z,14.70
2022-12-22T08:34:53.477Z,15.25
2022-12-22T08:37:24.776Z,14.77
2022-12-22T08:39:56.357Z,15.77
2022-12-22T08:42:25.540Z,14.75
2022-12-22T08:44:53.546Z,14.05
2022-12-22T08:47:21.500Z,13.38
2022-12-22T08:49:48.979Z,14.43
2022-12-22T08:52:18.711Z,15.50
2022-12-22T08:54:46.600Z,14.88
2022-12-22T08:57:13.481Z,15.07
2022-12-22T08:59:40.257Z,16.13
2022-12-22T09:02:07.552Z,15.30
2022-12-22T09:04:34.888Z,15.88
2022-12-22T09:07:02.740Z,17.05
2022-12-22T09:09:33.008Z,19.30
2022-12-22T09:12:01.004Z,17.98
2022-12-22T09:14:29.143Z,17.38
2022-12-22T09:16:56.491Z,15.75
2022-12-22T09:19:23.432Z,17.05
2022-12-22T09:21:50.275Z,18.00
2022-12-22T09:24:17.316Z,18.45
2022-12-22T09:26:51.341Z,16.50
2022-12-22T09:29:18.137Z,18.65
2022-12-22T09:31:46.918Z,22.10
2022-12-22T09:34:18.131Z,25.15
2022-12-22T09:39:13.495Z,23.88
2022-12-22T09:41:55.654Z,23.08
2022-12-22T09:44:38.355Z,23.17
2022-12-22T09:48:12.218Z,25.38
2022-12-22T09:50:40.566Z,20.27
2022-12-22T09:53:15.322Z,22.50
2022-12-22T09:55:47.799Z,23.10
2022-12-22T09:58:26.041Z,23.20
2022-12-22T10:01:14.621Z,22.35
2022-12-22T10:03:58.224Z,25.50
2022-12-22T10:06:43.641Z,26.15
2022-12-22T10:09:55.215Z,24.45
2022-12-22T10:12:18.686Z,26.05
2022-12-22T10:14:48.736Z,23.02
2022-12-22T10:17:24.207Z,22.60
2022-12-22T10:19:53.611Z,21.85
2022-12-22T10:22:33.233Z,24.52
2022-12-22T10:25:02.179Z,21.83
2022-12-22T10:27:33.467Z,21.27
2022-12-22T10:30:24.087Z,21.83
2022-12-22T10:33:18.166Z,20.70
2022-12-22T10:35:47.645Z,21.70
2022-12-22T10:38:22.689Z,22.63
2022-12-22T10:41:04.938Z,23.95
2022-12-22T10:43:38.672Z,27.05
2022-12-22T10:46:06.876Z,28.98
2022-12-22T10:48:38.631Z,36.70
2022-12-22T10:54:33.625Z,33.30
2022-12-22T10:57:29.833Z,28.10
2022-12-22T10:59:58.068Z,25.20
2022-12-22T11:02:34.811Z,25.50
2022-12-22T11:05:23.281Z,26.35
2022-12-22T11:07:50.309Z,26.42
2022-12-22T11:10:38.881Z,26.98
2022-12-22T11:13:08.603Z,27.50
2022-12-22T11:15:48.612Z,37.35
2022-12-22T11:18:30.632Z,32.30
2022-12-22T11:21:24.253Z,39.70
2022-12-22T11:24:17.990Z,28.13
2022-12-22T11:26:53.849Z,28.95
2022-12-22T11:29:31.583Z,28.73
2022-12-22T11:32:04.298Z,29.45
2022-12-22T11:34:49.126Z,28.77
2022-12-22T11:37:48.437Z,29.95
2022-12-22T11:40:41.573Z,30.48
2022-12-22T11:43:27.982Z,33.38
2022-12-22T11:46:15.178Z,31.83
2022-12-22T11:48:50.829Z,32.75
2022-12-22T11:51:40.596Z,35.38
2022-12-22T11:54:27.749Z,35.58
2022-12-22T11:57:13.508Z,34.28
2022-12-22T12:00:05.997Z,32.72
2022-12-22T12:03:00.568Z,31.90
2022-12-22T12:05:41.016Z,33.00
2022-12-22T12:08:26.727Z,32.50
2022-12-22T12:11:31.238Z,32.08
2022-12-22T12:14:00.824Z,33.05
2022-12-22T12:16:40.914Z,41.05
2022-12-22T12:19:45.202Z,37.50
2022-12-22T12:22:39.015Z,37.97
2022-12-22T12:25:19.813Z,40.63
2022-12-22T12:28:18.607Z,37.95
2022-12-22T12:31:05.253Z,35.70
2022-12-22T12:33:36.261Z,35.28
2022-12-22T12:36:14.343Z,34.40
2022-12-22T12:39:09.110Z,35.13
2022-12-22T12:41:54.329Z,35.85
2022-12-22T12:44:26.528Z,36.13
2022-12-22T12:46:59.926Z,35.38
2022-12-22T12:49:36.092Z,34.22
2022-12-22T12:52:10.451Z,34.45
2022-12-22T12:54:39.283Z,35.65
2022-12-22T12:57:21.052Z,35.63
2022-12-22T12:59:49.057Z,35.00
2022-12-22T13:02:28.482Z,35.42
2022-12-22T13:05:13.927Z,34.85
2022-12-22T13:08:11.345Z,36.35
2022-12-22T13:10:43.029Z,35.30
2022-12-22T13:13:21.970Z,35.45
2022-12-22T13:16:08.983Z,34.25
2022-12-22T13:18:35.718Z,38.10
2022-12-22T13:21:50.925Z,35.28
2022-12-22T13:24:24.742Z,36.78
2022-12-22T13:26:57.042Z,36.63
2022-12-22T13:29:47.271Z,37.55
2022-12-22T13:32:16.926Z,37.00
2022-12-22T13:37:57.511Z,38.38
2022-12-22T13:40:40.142Z,38.28
2022-12-22T13:43:17.943Z,40.95
2022-12-22T13:45:48.509Z,38.58
2022-12-22T13:48:30.417Z,38.38
2022-12-22T13:54:06.863Z,37.42
2022-12-22T13:56:39.821Z,36.70
2022-12-22T13:59:32.782Z,39.00
2022-12-22T14:02:15.605Z,38.92
2022-12-22T14:05:04.572Z,39.38
2022-12-22T14:07:31.661Z,38.70
2022-12-22T14:09:58.643Z,41.83
2022-12-22T14:12:46.795Z,38.28
2022-12-22T14:15:19.103Z,42.20
2022-12-22T14:17:52.001Z,36.30
2022-12-22T14:20:22.053Z,36.10
2022-12-22T14:23:21.993Z,31.50
2022-12-22T14:25:50.977Z,32.90
2022-12-22T14:28:30.894Z,26.58
2022-12-22T14:30:59.300Z,26.88
2022-12-22T14:33:29.986Z,33.50
2022-12-22T14:36:20.717Z,33.60
2022-12-22T14:39:10.625Z,28.35
2022-12-22T14:42:01.860Z,30.13
2022-12-22T14:48:09.095Z,23.70
2022-12-22T14:50:36.575Z,21.27
2022-12-22T14:53:05.605Z,22.55
2022-12-22T14:55:41.242Z,23.50
2022-12-22T14:58:12.730Z,22.58
2022-12-22T15:08:38.772Z,20.95
2022-12-22T15:15:49.296Z,19.75
2022-12-22T15:22:40.411Z,18.33
2022-12-22T15:29:26.761Z,14.98
2022-12-22T15:35:35.209Z,17.48
2022-12-22T15:38:02.146Z,20.63
2022-12-22T15:40:29.266Z,26.35
2022-12-22T15:42:56.110Z,27.10
2022-12-22T15:45:23.166Z,21.27
2022-12-22T15:48:11.032Z,17.45
2022-12-22T15:54:43.062Z,15.93
2022-12-22T15:59:39.883Z,15.32
2022-12-22T16:02:12.387Z,15.52
2022-12-22T16:04:39.494Z,15.63
2022-12-22T16:07:06.462Z,16.38
2022-12-22T16:09:42.815Z,15.27
2022-12-22T16:12:14.701Z,16.10
2022-12-22T16:14:49.777Z,17.27
2022-12-22T16:17:25.141Z,16.77
2022-12-22T16:19:52.235Z,17.67
2022-12-22T16:22:23.137Z,16.13
2022-12-22T16:24:50.997Z,16.23
2022-12-22T16:27:17.866Z,16.30
2022-12-22T16:29:51.490Z,17.90
2022-12-22T16:32:25.548Z,19.23
2022-12-22T16:34:53.131Z,19.98
2022-12-22T16:37:19.937Z,20.75
2022-12-22T16:39:47.312Z,21.55
2022-12-22T16:45:04.479Z,19.38
2022-12-22T16:47:36.071Z,19.80
2022-12-22T16:50:03.515Z,20.05
2022-12-22T16:53:05.581Z,20.92
2022-12-22T16:55:33.590Z,19.92
2022-12-22T16:58:00.369Z,19.77
2022-12-22T17:00:30.881Z,19.98
2022-12-22T17:03:03.892Z,18.48
2022-12-22T17:05:43.760Z,19.88
2022-12-22T17:08:36.300Z,21.80
2022-12-22T17:11:10.588Z,21.15
2022-12-22T17:13:38.873Z,17.98
2022-12-22T17:16:05.876Z,21.30
2022-12-22T17:18:33.288Z,25.83
2022-12-22T17:21:00.698Z,23.90
2022-12-22T17:23:33.348Z,23.50
2022-12-22T17:26:01.734Z,24.85
2022-12-22T17:28:28.918Z,25.90
2022-12-22T17:30:55.764Z,48.38
2022-12-22T17:33:22.618Z,38.80
2022-12-22T17:35:50.143Z,28.10
2022-12-22T17:38:19.621Z,31.50
2022-12-22T17:40:48.677Z,26.17
2022-12-22T17:43:17.567Z,22.08
2022-12-22T17:45:47.907Z,24.00
2022-12-22T17:48:15.971Z,19.95
2022-12-22T17:50:44.794Z,20.50
2022-12-22T17:53:19.173Z,23.00
2022-12-22T17:56:07.606Z,20.13
2022-12-22T17:58:34.323Z,20.85
2022-12-22T18:01:01.523Z,20.52
2022-12-22T18:03:28.370Z,19.15
2022-12-22T18:05:55.526Z,19.25
2022-12-22T18:08:22.428Z,24.67
2022-12-22T18:10:49.917Z,28.42
2022-12-22T18:13:21.279Z,26.70
2022-12-22T18:15:48.028Z,24.15
2022-12-22T18:18:16.579Z,24.00
2022-12-22T18:20:44.481Z,24.35
2022-12-22T18:23:17.896Z,22.08
2022-12-22T18:25:44.711Z,19.92
2022-12-22T18:28:16.147Z,21.83
2022-12-22T18:30:43.269Z,21.33
2022-12-22T18:33:10.297Z,18.60
2022-12-22T18:35:39.291Z,19.65
2022-12-22T18:38:06.811Z,21.50
2022-12-22T18:40:38.784Z,21.48
2022-12-22T18:43:14.740Z,20.08
2022-12-22T18:45:41.537Z,23.30
2022-12-22T18:48:09.531Z,23.60
2022-12-22T18:50:36.307Z,23.08
2022-12-22T18:53:26.518Z,21.77
2022-12-22T18:55:53.788Z,22.75
2022-12-22T18:58:20.589Z,23.63
2022-12-22T19:00:48.246Z,26.98
2022-12-22T19:03:24.349Z,23.52
2022-12-22T19:05:51.770Z,25.45
2022-12-22T19:08:20.357Z,21.88
2022-12-22T19:10:51.029Z,23.80
2022-12-22T19:13:48.571Z,22.85
2022-12-22T19:16:18.760Z,21.33
2022-12-22T19:18:45.528Z,24.92
2022-12-22T19:21:14.280Z,22.85
2022-12-22T19:23:41.054Z,22.40
2022-12-22T19:26:19.459Z,23.42
2022-12-22T19:28:46.597Z,26.00
2022-12-22T19:31:21.860Z,26.35
2022-12-22T19:33:49.244Z,33.17
2022-12-22T19:36:25.465Z,30.27
2022-12-22T19:39:03.252Z,27.52
2022-12-22T19:41:47.452Z,30.88
2022-12-22T19:44:26.115Z,28.65
2022-12-22T19:46:54.601Z,30.13
2022-12-22T19:49:24.082Z,29.17
2022-12-22T19:51:51.181Z,27.30
2022-12-22T19:54:19.739Z,27.33
2022-12-22T19:56:52.284Z,26.85
2022-12-22T19:59:35.711Z,29.27
2022-12-22T20:02:34.419Z,32.83
2022-12-22T20:05:01.454Z,33.45
2022-12-22T20:07:30.005Z,34.40
2022-12-22T20:09:56.826Z,32.28
2022-12-22T20:12:26.282Z,30.88
2022-12-22T20:14:53.507Z,34.67
2022-12-22T20:17:20.747Z,35.20
2022-12-22T20:19:47.632Z,33.22
2022-12-22T20:22:17.441Z,34.42
2022-12-22T20:24:46.193Z,35.60
2022-12-22T20:27:21.148Z,33.83
2022-12-22T20:29:47.924Z,34.72
2022-12-22T20:32:15.524Z,32.63
2022-12-22T20:34:42.796Z,32.70
2022-12-22T20:37:18.062Z,32.00
2022-12-22T20:39:45.730Z,33.55
2022-12-22T20:42:20.802Z,32.78
2022-12-22T20:45:02.899Z,29.88
2022-12-22T20:47:33.185Z,27.58
2022-12-22T20:50:00.050Z,26.50
2022-12-22T20:52:27.313Z,27.40
2022-12-22T20:54:54.077Z,28.15
2022-12-22T20:57:22.572Z,26.73
2022-12-22T20:59:55.690Z,24.13
2022-12-22T21:02:27.689Z,24.00
2022-12-22T21:04:55.412Z,24.35
2022-12-22T21:07:22.173Z,23.58
2022-12-22T21:09:48.939Z,25.33
2022-12-22T21:12:15.712Z,24.55
2022-12-22T21:14:42.438Z,24.70
2022-12-22T21:17:27.614Z,25.20
2022-12-22T21:19:54.412Z,24.90
2022-12-22T21:22:21.217Z,22.15
2022-12-22T21:24:48.012Z,22.85
2022-12-22T21:27:20.392Z,23.88
2022-12-22T21:29:47.587Z,23.55
2022-12-22T21:32:15.421Z,23.63
2022-12-22T21:34:42.342Z,20.25
2022-12-22T21:37:18.640Z,21.40
2022-12-22T21:39:46.521Z,22.45
2022-12-22T21:42:23.157Z,22.88
2022-12-22T21:44:51.455Z,23.42
2022-12-22T21:47:20.663Z,21.30
2022-12-22T21:49:47.628Z,20.98
2022-12-22T21:52:14.427Z,21.25
2022-12-22T21:54:41.221Z,22.08
2022-12-22T21:57:13.805Z,23.58
2022-12-22T21:59:40.625Z,21.35
2022-12-22T22:02:18.044Z,20.40
2022-12-22T22:04:51.837Z,22.55
2022-12-22T22:07:21.132Z,23.25
2022-12-22T22:09:47.941Z,22.08
2022-12-22T22:12:32.760Z,21.98
2022-12-22T22:15:03.093Z,23.15
2022-12-22T22:17:30.037Z,24.15
2022-12-22T22:19:56.856Z,24.30
2022-12-22T22:22:23.701Z,23.23
2022-12-22T22:28:31.149Z,19.88
2022-12-22T22:35:08.508Z,19.60
2022-12-22T22:37:54.505Z,21.30
2022-12-22T22:40:22.904Z,22.50
2022-12-22T22:42:49.793Z,23.17
2022-12-22T22:45:39.223Z,20.17
2022-12-22T22:51:52.216Z,22.30
2022-12-22T22:58:39.452Z,17.27
2022-12-22T23:04:59.625Z,14.60
2022-12-22T23:11:29.557Z,13.88
2022-12-22T23:17:43.771Z,12.48
2022-12-22T23:20:10.985Z,12.18
2022-12-22T23:22:37.785Z,12.10
2022-12-22T23:29:02.636Z,11.85
2022-12-22T23:31:32.506Z,11.30
2022-12-22T23:33:59.655Z,10.32
2022-12-22T23:36:26.749Z,12.20
2022-12-22T23:42:40.557Z,12.77
2022-12-22T23:52:45.489Z,15.25
2022-12-22T23:59:07.152Z,14.43
